createdAt,value
2022-11-06T00:00:33.664Z,101831.66
2022-11-06T00:03:01.229Z,101826.25
2022-11-06T00:05:48.155Z,101825.47
2022-11-06T00:08:16.292Z,101818.63
2022-11-06T00:10:44.059Z,101821.31
2022-11-06T00:13:13.965Z,101828.53
2022-11-06T00:15:42.588Z,101834.06
2022-11-06T00:18:09.922Z,101833.19
2022-11-06T00:20:37.639Z,101824.38
2022-11-06T00:23:05.053Z,101829.72
2022-11-06T00:25:32.250Z,101819.91
2022-11-06T00:27:59.444Z,101816.47
2022-11-06T00:30:27.379Z,101816.53
2022-11-06T00:32:54.687Z,101811.06
2022-11-06T00:35:22.546Z,101805.63
2022-11-06T00:37:49.892Z,101811.06
2022-11-06T00:40:17.156Z,101821.81
2022-11-06T00:42:45.203Z,101806.03
2022-11-06T00:45:16.199Z,101808.84
2022-11-06T00:47:43.564Z,101808.09
2022-11-06T00:50:14.455Z,101815.31
2022-11-06T00:52:41.689Z,101803.00
2022-11-06T00:55:12.948Z,101811.09
2022-11-06T00:57:40.200Z,101810.34
2022-11-06T01:00:08.615Z,101807.75
2022-11-06T01:02:36.022Z,101811.28
2022-11-06T01:05:04.602Z,101807.91
2022-11-06T01:07:33.652Z,101810.72
2022-11-06T01:10:01.832Z,101809.72
2022-11-06T01:12:32.572Z,101799.06
2022-11-06T01:14:59.940Z,101805.16
2022-11-06T01:17:28.957Z,101807.81
2022-11-06T01:19:56.487Z,101814.00
2022-11-06T01:22:23.955Z,101806.88
2022-11-06T01:24:54.984Z,101801.59
2022-11-06T01:27:27.255Z,101797.16
2022-11-06T01:29:55.583Z,101807.06
2022-11-06T01:32:22.933Z,101801.94
2022-11-06T01:34:51.508Z,101800.34
2022-11-06T01:37:19.240Z,101798.00
2022-11-06T01:39:46.428Z,101801.44
2022-11-06T01:42:19.486Z,101798.84
2022-11-06T01:45:15.897Z,101802.44
2022-11-06T01:47:43.296Z,101799.06
2022-11-06T01:50:11.184Z,101810.66
2022-11-06T01:52:38.567Z,101812.53
2022-11-06T01:55:26.624Z,101816.22
2022-11-06T01:57:55.227Z,101812.78
2022-11-06T02:00:24.797Z,101819.22
2022-11-06T02:02:52.317Z,101812.22
2022-11-06T02:05:20.008Z,101822.97
2022-11-06T02:07:48.156Z,101816.81
2022-11-06T02:10:17.281Z,101817.72
2022-11-06T02:13:04.486Z,101817.78
2022-11-06T02:15:38.318Z,101821.44
2022-11-06T02:18:17.497Z,101823.31
2022-11-06T02:21:09.795Z,101818.81
2022-11-06T02:23:45.711Z,101826.69
2022-11-06T02:26:46.513Z,101830.28
2022-11-06T02:29:26.323Z,101820.56
2022-11-06T02:31:56.382Z,101817.97
2022-11-06T02:34:26.590Z,101829.59
2022-11-06T02:36:58.325Z,101826.16
2022-11-06T02:39:27.981Z,101828.81
2022-11-06T02:41:57.713Z,101835.81
2022-11-06T02:44:26.602Z,101843.69
2022-11-06T02:46:57.511Z,101839.25
2022-11-06T02:49:37.271Z,101844.53
2022-11-06T02:52:23.717Z,101853.31
2022-11-06T02:54:59.348Z,101853.25
2022-11-06T02:57:27.270Z,101850.56
2022-11-06T02:59:57.582Z,101857.44
2022-11-06T03:02:29.506Z,101867.28
2022-11-06T03:05:19.377Z,101866.50
2022-11-06T03:08:10.187Z,101866.41
2022-11-06T03:10:48.097Z,101866.38
2022-11-06T03:13:19.938Z,101862.84
2022-11-06T03:16:05.312Z,101866.22
2022-11-06T03:18:37.180Z,101871.56
2022-11-06T03:21:13.538Z,101860.81
2022-11-06T03:23:49.268Z,101864.28
2022-11-06T03:26:21.484Z,101863.44
2022-11-06T03:28:57.116Z,101861.56
2022-11-06T03:31:37.377Z,101863.28
2022-11-06T03:34:11.637Z,101857.03
2022-11-06T03:36:57.048Z,101865.88
2022-11-06T03:39:36.874Z,101866.06
2022-11-06T03:42:29.821Z,101854.63
2022-11-06T03:45:01.090Z,101855.56
2022-11-06T03:47:41.983Z,101868.06
2022-11-06T03:50:45.580Z,101855.75
2022-11-06T03:53:24.069Z,101855.75
2022-11-06T03:56:02.842Z,101853.19
2022-11-06T03:58:38.131Z,101856.63
2022-11-06T04:01:09.054Z,101848.50
2022-11-06T04:03:55.350Z,101853.91
2022-11-06T04:06:42.507Z,101855.66
2022-11-06T04:09:32.148Z,101854.00
2022-11-06T04:12:22.416Z,101864.63
2022-11-06T04:14:53.306Z,101863.69
2022-11-06T04:17:22.855Z,101857.50
2022-11-06T04:19:53.228Z,101864.50
2022-11-06T04:22:34.815Z,101861.78
2022-11-06T04:25:45.314Z,101861.69
2022-11-06T04:28:29.084Z,101864.31
2022-11-06T04:31:10.104Z,101870.50
2022-11-06T04:33:49.887Z,101875.09
2022-11-06T04:36:49.051Z,101880.41
2022-11-06T04:39:29.004Z,101873.22
2022-11-06T04:42:16.563Z,101882.00
2022-11-06T04:44:49.358Z,101882.75
2022-11-06T04:47:19.597Z,101880.88
2022-11-06T04:49:52.406Z,101882.53
2022-11-06T04:52:25.891Z,101885.09
2022-11-06T04:54:55.206Z,101886.84
2022-11-06T04:57:25.808Z,101885.84
2022-11-06T04:59:54.062Z,101886.72
2022-11-06T05:02:21.276Z,101892.81
2022-11-06T05:04:48.697Z,101889.19
2022-11-06T05:07:17.655Z,101894.41
2022-11-06T05:09:48.341Z,101905.81
2022-11-06T05:12:19.682Z,101913.69
2022-11-06T05:14:47.908Z,101913.69
2022-11-06T05:17:15.444Z,101917.13
2022-11-06T05:19:44.735Z,101914.47
2022-11-06T05:22:30.793Z,101918.75
2022-11-06T05:24:58.558Z,101923.97
2022-11-06T05:27:34.925Z,101923.91
2022-11-06T05:30:02.494Z,101930.94
2022-11-06T05:32:31.332Z,101935.25
2022-11-06T05:34:58.672Z,101925.50
2022-11-06T05:37:27.562Z,101925.38
2022-11-06T05:39:54.767Z,101926.25
2022-11-06T05:42:22.081Z,101917.47
2022-11-06T05:44:50.749Z,101924.53
2022-11-06T05:47:18.219Z,101919.91
2022-11-06T05:49:46.500Z,101929.66
2022-11-06T05:52:13.756Z,101920.56
2022-11-06T05:54:41.545Z,101933.75
2022-11-06T05:57:09.031Z,101936.28
2022-11-06T05:59:36.924Z,101938.88
2022-11-06T06:02:04.540Z,101938.69
2022-11-06T06:04:32.210Z,101948.38
2022-11-06T06:08:24.513Z,101945.78
2022-11-06T06:14:25.654Z,101953.53
2022-11-06T06:16:55.523Z,101953.41
2022-11-06T06:19:23.999Z,101949.78
2022-11-06T06:21:51.683Z,101948.84
2022-11-06T06:24:19.066Z,101950.50
2022-11-06T06:26:47.001Z,101953.00
2022-11-06T06:29:16.780Z,101951.16
2022-11-06T06:31:44.287Z,101953.91
2022-11-06T06:34:11.618Z,101945.91
2022-11-06T06:36:39.385Z,101947.50
2022-11-06T06:39:06.574Z,101949.03
2022-11-06T06:41:40.964Z,101953.38
2022-11-06T06:44:09.275Z,101946.31
2022-11-06T06:46:54.310Z,101951.47
2022-11-06T06:49:21.616Z,101954.94
2022-11-06T06:51:49.999Z,101953.97
2022-11-06T06:54:17.315Z,101949.25
2022-11-06T06:56:48.422Z,101954.22
2022-11-06T06:59:15.955Z,101945.94
2022-11-06T07:01:44.142Z,101947.50
2022-11-06T07:04:11.903Z,101955.34
2022-11-06T07:06:40.508Z,101953.31
2022-11-06T07:09:08.498Z,101945.13
2022-11-06T07:11:36.453Z,101943.38
2022-11-06T07:14:04.477Z,101949.56
2022-11-06T07:16:33.650Z,101948.53
2022-11-06T07:19:01.186Z,101953.72
2022-11-06T07:21:29.156Z,101946.56
2022-11-06T07:24:00.960Z,101948.41
2022-11-06T07:26:32.946Z,101950.91
2022-11-06T07:32:02.805Z,101945.00
2022-11-06T07:34:42.464Z,101951.88
2022-11-06T07:37:15.575Z,101953.56
2022-11-06T07:39:43.437Z,101948.03
2022-11-06T07:42:13.052Z,101943.41
2022-11-06T07:44:45.139Z,101950.16
2022-11-06T07:47:20.170Z,101949.28
2022-11-06T07:49:50.957Z,101941.94
2022-11-06T07:52:22.596Z,101952.28
2022-11-06T07:54:49.931Z,101950.19
2022-11-06T07:57:18.850Z,101944.47
2022-11-06T07:59:46.242Z,101951.22
2022-11-06T08:02:14.147Z,101945.94
2022-11-06T08:04:43.502Z,101946.94
2022-11-06T08:13:51.013Z,101947.88
2022-11-06T08:17:56.379Z,101960.69
2022-11-06T08:20:35.460Z,101954.38
2022-11-06T08:23:09.586Z,101947.19
2022-11-06T08:25:47.301Z,101945.88
2022-11-06T08:28:18.459Z,101948.03
2022-11-06T08:30:46.138Z,101943.34
2022-11-06T08:37:29.507Z,101946.75
2022-11-06T08:40:10.089Z,101955.78
2022-11-06T08:42:50.797Z,101943.25
2022-11-06T08:45:22.844Z,101953.88
2022-11-06T08:47:55.908Z,101947.44
2022-11-06T08:50:28.490Z,101954.81
2022-11-06T08:56:03.153Z,101954.19
2022-11-06T08:58:33.245Z,101947.09
2022-11-06T09:01:00.768Z,101958.88
2022-11-06T09:03:30.788Z,101952.63
2022-11-06T09:06:01.887Z,101954.25
2022-11-06T09:08:30.386Z,101951.22
2022-11-06T09:10:59.052Z,101957.22
2022-11-06T09:13:27.280Z,101956.28
2022-11-06T09:15:55.557Z,101954.28
2022-11-06T09:18:25.680Z,101953.91
2022-11-06T09:20:57.442Z,101959.84
2022-11-06T09:23:25.580Z,101964.00
2022-11-06T09:25:52.908Z,101962.31
2022-11-06T09:28:20.184Z,101959.59
2022-11-06T09:30:47.513Z,101967.47
2022-11-06T09:33:15.480Z,101966.59
2022-11-06T09:35:43.409Z,101960.72
2022-11-06T09:38:12.347Z,101967.03
2022-11-06T09:45:02.534Z,101970.31
2022-11-06T09:47:38.100Z,101964.75
2022-11-06T09:50:16.081Z,101958.56
2022-11-06T09:53:12.634Z,101959.44
2022-11-06T09:55:44.005Z,101959.31
2022-11-06T09:58:43.879Z,101953.00
2022-11-06T10:01:29.611Z,101954.69
2022-11-06T10:04:03.368Z,101959.00
2022-11-06T10:06:35.769Z,101955.13
2022-11-06T10:09:13.440Z,101949.34
2022-11-06T10:12:03.076Z,101939.47
2022-11-06T10:14:42.585Z,101955.78
2022-11-06T10:18:07.716Z,101939.41
2022-11-06T10:20:42.442Z,101940.72
2022-11-06T10:23:54.214Z,101933.69
2022-11-06T10:26:55.939Z,101932.75
2022-11-06T10:29:47.970Z,101923.84
2022-11-06T10:32:48.151Z,101929.97
2022-11-06T10:35:55.412Z,101929.41
2022-11-06T10:38:26.799Z,101931.94
2022-11-06T10:40:55.502Z,101921.38
2022-11-06T10:43:49.453Z,101926.75
2022-11-06T10:46:36.398Z,101919.19
2022-11-06T10:49:12.462Z,101907.44
2022-11-06T10:52:03.281Z,101914.25
2022-11-06T10:54:55.852Z,101907.00
2022-11-06T10:57:48.932Z,101910.72
2022-11-06T11:00:16.678Z,101909.84
2022-11-06T11:03:07.680Z,101901.47
2022-11-06T11:05:42.793Z,101899.22
2022-11-06T11:08:32.131Z,101911.88
2022-11-06T11:11:29.893Z,101902.84
2022-11-06T11:14:03.069Z,101911.78
2022-11-06T11:16:38.261Z,101908.38
2022-11-06T11:19:24.088Z,101908.53
2022-11-06T11:22:18.565Z,101906.06
2022-11-06T11:25:07.164Z,101910.34
2022-11-06T11:27:45.466Z,101905.50
2022-11-06T11:30:31.977Z,101904.53
2022-11-06T11:32:59.592Z,101915.56
2022-11-06T11:35:30.883Z,101906.94
2022-11-06T11:38:13.064Z,101904.63
2022-11-06T11:40:41.044Z,101908.28
2022-11-06T11:43:26.904Z,101899.47
2022-11-06T11:46:04.972Z,101898.72
2022-11-06T11:48:52.337Z,101904.00
2022-11-06T11:51:39.539Z,101901.19
2022-11-06T11:54:08.441Z,101897.22
2022-11-06T11:57:03.574Z,101897.34
2022-11-06T11:59:55.290Z,101899.59
2022-11-06T12:02:29.699Z,101903.38
2022-11-06T12:05:08.429Z,101907.34
2022-11-06T12:07:58.534Z,101904.81
2022-11-06T12:10:34.298Z,101896.91
2022-11-06T12:13:23.736Z,101898.66
2022-11-06T12:16:17.114Z,101908.44
2022-11-06T12:18:53.410Z,101906.69
2022-11-06T12:21:35.814Z,101895.81
2022-11-06T12:24:07.209Z,101904.13
2022-11-06T12:26:54.390Z,101904.41
2022-11-06T12:29:46.543Z,101902.75
2022-11-06T12:32:24.560Z,101906.63
2022-11-06T12:34:57.557Z,101914.00
2022-11-06T12:37:44.344Z,101907.16
2022-11-06T12:40:47.171Z,101907.16
2022-11-06T12:43:20.903Z,101908.88
2022-11-06T12:46:09.209Z,101907.78
2022-11-06T12:48:46.143Z,101901.59
2022-11-06T12:51:52.245Z,101904.69
2022-11-06T12:54:57.437Z,101907.59
2022-11-06T12:57:38.469Z,101913.09
2022-11-06T13:00:52.247Z,101912.94
2022-11-06T13:03:26.650Z,101914.06
2022-11-06T13:06:12.033Z,101921.34
2022-11-06T13:08:54.407Z,101915.56
2022-11-06T13:11:47.119Z,101912.84
2022-11-06T13:14:27.926Z,101919.41
2022-11-06T13:17:06.055Z,101915.25
2022-11-06T13:20:03.191Z,101917.09
2022-11-06T13:23:05.277Z,101913.63
2022-11-06T13:25:57.146Z,101920.81
2022-11-06T13:29:05.719Z,101920.84
2022-11-06T13:31:39.648Z,101920.06
2022-11-06T13:34:20.838Z,101914.75
2022-11-06T13:36:48.638Z,101913.81
2022-11-06T13:39:21.419Z,101906.97
2022-11-06T13:41:55.516Z,101909.91
2022-11-06T13:44:23.555Z,101906.53
2022-11-06T13:47:01.439Z,101904.00
2022-11-06T13:49:29.443Z,101900.44
2022-11-06T13:52:04.106Z,101907.66
2022-11-06T13:54:53.268Z,101910.41
2022-11-06T13:57:39.256Z,101912.31
2022-11-06T14:00:16.361Z,101906.84
2022-11-06T14:03:06.155Z,101904.91
2022-11-06T14:05:54.070Z,101903.06
2022-11-06T14:08:33.722Z,101903.91
2022-11-06T14:11:37.296Z,101907.38
2022-11-06T14:14:07.296Z,101898.63
2022-11-06T14:16:40.805Z,101903.06
2022-11-06T14:19:46.337Z,101908.41
2022-11-06T14:22:39.648Z,101906.53
2022-11-06T14:25:38.170Z,101902.03
2022-11-06T14:28:43.010Z,101902.22
2022-11-06T14:31:50.311Z,101910.31
2022-11-06T14:34:54.835Z,101911.56
2022-11-06T14:37:31.795Z,101914.66
2022-11-06T14:40:22.331Z,101914.03
2022-11-06T14:43:30.482Z,101912.47
2022-11-06T14:46:33.213Z,101911.72
2022-11-06T14:49:50.086Z,101916.31
2022-11-06T14:52:44.661Z,101906.56
2022-11-06T14:55:31.440Z,101911.84
2022-11-06T14:58:36.427Z,101919.78
2022-11-06T15:01:32.473Z,101914.69
2022-11-06T15:04:00.757Z,101912.13
2022-11-06T15:06:46.885Z,101914.00
2022-11-06T15:09:23.148Z,101918.50
2022-11-06T15:12:13.345Z,101910.75
2022-11-06T15:14:42.902Z,101913.59
2022-11-06T15:17:24.288Z,101925.19
2022-11-06T15:20:15.955Z,101918.09
2022-11-06T15:23:39.273Z,101917.22
2022-11-06T15:26:57.590Z,101928.38
2022-11-06T15:29:46.436Z,101932.25
2022-11-06T15:32:18.044Z,101928.91
2022-11-06T15:35:05.151Z,101932.59
2022-11-06T15:38:15.684Z,101925.56
2022-11-06T15:40:45.691Z,101932.00
2022-11-06T15:43:28.770Z,101934.06
2022-11-06T15:46:25.797Z,101933.47
2022-11-06T15:49:09.689Z,101939.75
2022-11-06T15:51:39.343Z,101932.78
2022-11-06T15:54:26.843Z,101933.88
2022-11-06T15:56:54.443Z,101933.06
2022-11-06T15:59:22.915Z,101933.09
2022-11-06T16:01:57.754Z,101935.78
2022-11-06T16:04:32.187Z,101940.91
2022-11-06T16:07:26.028Z,101936.50
2022-11-06T16:09:54.037Z,101947.28
2022-11-06T16:12:23.592Z,101943.22
2022-11-06T16:14:54.828Z,101944.25
2022-11-06T16:17:28.576Z,101940.72
2022-11-06T16:19:59.869Z,101949.66
2022-11-06T16:22:34.659Z,101944.34
2022-11-06T16:25:06.372Z,101957.69
2022-11-06T16:27:40.379Z,101951.66
2022-11-06T16:30:24.670Z,101951.97
2022-11-06T16:37:04.357Z,101965.66
2022-11-06T16:39:56.920Z,101962.19
2022-11-06T16:42:38.981Z,101962.50
2022-11-06T16:45:24.730Z,101958.41
2022-11-06T16:48:23.585Z,101968.31
2022-11-06T16:50:54.764Z,101971.16
2022-11-06T16:53:25.316Z,101968.66
2022-11-06T16:56:00.692Z,101970.31
2022-11-06T16:58:31.940Z,101968.50
2022-11-06T17:01:06.978Z,101971.09
2022-11-06T17:03:42.642Z,101968.44
2022-11-06T17:06:23.397Z,101967.56
2022-11-06T17:09:09.417Z,101979.16
2022-11-06T17:11:37.403Z,101972.09
2022-11-06T17:14:14.829Z,101968.59
2022-11-06T17:17:14.754Z,101966.84
2022-11-06T17:19:47.925Z,101967.66
2022-11-06T17:22:17.831Z,101971.25
2022-11-06T17:24:46.294Z,101970.44
2022-11-06T17:27:15.706Z,101971.63
2022-11-06T17:29:46.078Z,101967.50
2022-11-06T17:32:43.702Z,101972.81
2022-11-06T17:35:14.736Z,101972.09
2022-11-06T17:37:47.216Z,101975.00
2022-11-06T17:40:14.501Z,101979.59
2022-11-06T17:42:47.563Z,101978.59
2022-11-06T17:45:23.525Z,101967.91
2022-11-06T17:47:51.073Z,101972.31
2022-11-06T17:50:21.929Z,101978.44
2022-11-06T17:52:49.332Z,101975.00
2022-11-06T17:56:27.676Z,101983.75
2022-11-06T17:58:58.412Z,101977.44
2022-11-06T18:01:29.767Z,101979.28
2022-11-06T18:04:07.669Z,101986.56
2022-11-06T18:06:58.781Z,101987.44
2022-11-06T18:09:32.784Z,101981.38
2022-11-06T18:12:10.598Z,101994.25
2022-11-06T18:14:40.046Z,101990.09
2022-11-06T18:17:12.441Z,101999.88
2022-11-06T18:19:57.436Z,101997.22
2022-11-06T18:22:27.340Z,101998.09
2022-11-06T18:24:55.429Z,102003.47
2022-11-06T18:27:23.233Z,101994.56
2022-11-06T18:33:24.866Z,101989.34
2022-11-06T18:40:35.569Z,101993.84
2022-11-06T18:43:16.355Z,101986.03
2022-11-06T18:45:45.628Z,102005.53
2022-11-06T18:48:33.896Z,101991.28
2022-11-06T18:51:33.944Z,101997.47
2022-11-06T18:54:06.847Z,101989.34
2022-11-06T19:10:20.785Z,101985.16
2022-11-06T19:13:27.746Z,101995.00
2022-11-06T19:23:28.639Z,101985.03
2022-11-06T19:26:04.589Z,101988.47
2022-11-06T19:28:51.853Z,101988.56
2022-11-06T19:31:24.497Z,101994.94
2022-11-06T19:34:04.268Z,102002.06
2022-11-06T19:36:32.322Z,101987.81
2022-11-06T19:39:00.239Z,101999.28
2022-11-06T19:41:29.378Z,101992.16
2022-11-06T19:43:58.892Z,101989.47
2022-11-06T19:46:31.080Z,101993.16
2022-11-06T19:49:05.662Z,101997.78
2022-11-06T19:51:34.340Z,101999.72
2022-11-06T19:54:03.267Z,101997.13
2022-11-06T19:56:30.624Z,102002.44
2022-11-06T19:59:02.805Z,101996.13
2022-11-06T20:01:34.011Z,101998.91
2022-11-06T20:04:01.899Z,101991.75
2022-11-06T20:06:29.497Z,101997.88
2022-11-06T20:08:59.591Z,101996.13
2022-11-06T20:11:28.457Z,101994.25
2022-11-06T20:13:57.041Z,101989.81
2022-11-06T20:16:26.021Z,101995.25
2022-11-06T20:18:59.488Z,101994.28
2022-11-06T20:21:28.710Z,101992.47
2022-11-06T20:23:58.136Z,101990.81
2022-11-06T20:26:26.600Z,101996.94
2022-11-06T20:28:56.767Z,101985.34
2022-11-06T20:31:26.434Z,101988.81
2022-11-06T20:33:54.348Z,101982.69
2022-11-06T20:36:28.318Z,101984.66
2022-11-06T20:38:58.301Z,101976.75
2022-11-06T20:41:28.701Z,101981.16
2022-11-06T20:43:56.686Z,101986.41
2022-11-06T20:46:28.216Z,101974.81
2022-11-06T20:48:57.874Z,101980.09
2022-11-06T20:51:26.826Z,101974.72
2022-11-06T20:53:54.721Z,101973.78
2022-11-06T20:56:25.321Z,101975.63
2022-11-06T20:58:58.431Z,101980.03
2022-11-06T21:01:29.381Z,101975.69
2022-11-06T21:03:59.220Z,101980.16
2022-11-06T21:06:27.254Z,101973.81
2022-11-06T21:08:55.860Z,101974.63
2022-11-06T21:11:28.393Z,101964.91
2022-11-06T21:13:56.508Z,101958.84
2022-11-06T21:16:35.258Z,101964.97
2022-11-06T21:19:04.089Z,101968.50
2022-11-06T21:21:37.222Z,101969.38
2022-11-06T21:24:08.861Z,101960.75
2022-11-06T21:26:38.276Z,101971.72
2022-11-06T21:29:10.833Z,101968.25
2022-11-06T21:31:48.578Z,101965.59
2022-11-06T21:34:17.872Z,101981.50
2022-11-06T21:36:51.441Z,101970.00
2022-11-06T21:39:19.892Z,101964.59
2022-11-06T21:41:50.069Z,101973.59
2022-11-06T21:44:36.434Z,101977.16
2022-11-06T21:47:11.282Z,101983.38
2022-11-06T21:49:40.547Z,101979.81
2022-11-06T21:52:29.306Z,101978.09
2022-11-06T21:55:15.773Z,101976.25
2022-11-06T21:57:46.456Z,101966.41
2022-11-06T22:00:14.674Z,101973.41
2022-11-06T22:02:42.337Z,101972.50
2022-11-06T22:05:09.917Z,101977.78
2022-11-06T22:07:37.334Z,101959.28
2022-11-06T22:10:09.224Z,101968.09
2022-11-06T22:12:36.753Z,101964.59
2022-11-06T22:15:07.427Z,101961.94
2022-11-06T22:17:36.464Z,101958.31
2022-11-06T22:20:04.382Z,101959.28
2022-11-06T22:22:31.824Z,101961.28
2022-11-06T22:24:59.045Z,101960.28
2022-11-06T22:27:26.298Z,101965.59
2022-11-06T22:29:53.496Z,101967.28
2022-11-06T22:32:21.337Z,101962.00
2022-11-06T22:34:48.610Z,101957.53
2022-11-06T22:37:17.895Z,101963.00
2022-11-06T22:39:50.914Z,101963.06
2022-11-06T22:42:21.047Z,101962.94
2022-11-06T22:44:48.476Z,101976.25
2022-11-06T22:47:16.083Z,101965.59
2022-11-06T22:49:43.336Z,101971.78
2022-11-06T22:52:10.732Z,101976.38
2022-11-06T22:54:38.452Z,101966.66
2022-11-06T22:57:10.879Z,101974.81
2022-11-06T22:59:40.282Z,101973.03
2022-11-06T23:03:10.199Z,101972.13
2022-11-06T23:05:41.126Z,101965.03
2022-11-06T23:08:09.696Z,101973.88
2022-11-06T23:10:39.962Z,101980.03
2022-11-06T23:13:07.294Z,101973.72
2022-11-06T23:15:35.473Z,101977.22
2022-11-06T23:18:05.564Z,101982.50
2022-11-06T23:20:34.549Z,101976.25
2022-11-06T23:23:03.260Z,101982.38
2022-11-06T23:25:31.309Z,101974.34
2022-11-06T23:28:00.701Z,101977.81
2022-11-06T23:30:30.104Z,101975.16
2022-11-06T23:32:57.358Z,101978.66
2022-11-06T23:35:29.370Z,101976.06
2022-11-06T23:37:59.711Z,101984.03
2022-11-06T23:40:26.909Z,101975.09
2022-11-06T23:42:57.236Z,101968.81
2022-11-06T23:45:43.074Z,101969.72
2022-11-06T23:48:14.036Z,101976.88
2022-11-06T23:50:41.861Z,101972.47
2022-11-06T23:53:09.057Z,101965.34
2022-11-06T23:55:36.338Z,101973.34
2022-11-06T23:58:05.263Z,101964.47
